Here is the Quick Look data you requested

The Data originates at the National Weather Service, and is made available here by the UAlbany Department of Atmospheric and Environmental Sciences

Surface Observations

KCVG 201352Z 25006KT 3SM BR BKN005 OVC010 07/05 A3019 RMK AO2 DZE08 SLP224 VIS
 S 2 P0000 T00670050=
KCVG 201359Z 23005KT 2 1/2SM BR OVC006 07/05 A3019 RMK AO2 T00670050=
KCVG 201416Z 26006KT 3SM BR BKN004 BKN008 OVC027 07/05 A3019 RMK AO2 T00670050=
KCVG 201452Z VRB04KT 3SM BR BKN004 OVC009 07/06 A3020 RMK AO2 SLP228 60000
 T00670056 51020=
KCVG 201527Z 27005KT 1 1/2SM BR OVC004 07/06 A3022 RMK AO2 SFC VIS 3 T00720056=
KCVG 201554Z 22004KT 3SM BR OVC005 07/05 A3023 RMK AO2 SFC VIS 4 T00720050=
KCVG 201552Z 24005KT 1 1/2SM BR OVC005 07/05 A3023 RMK AO2 SFC VIS 3 SLP238
 T00720050=
KCVG 201652Z 20005KT 3SM BR OVC009 08/06 A3023 RMK AO2 SFC VIS 5 SLP237
 T00780056=
KCVG 201727Z 19004KT 5SM BR OVC011 08/06 A3021 RMK AO2 SFC VIS 7 T00830056=
KCVG 201752Z 25006KT 7SM BKN013 OVC019 09/06 A3022 RMK AO2 SLP234 60000
 T00890056 10089 20061 50005=
KCVG 201820Z 23006KT 9SM BKN015 OVC036 09/05 A3022 RMK AO2 T00890050=
KCVG 201852Z 22005KT 10SM SCT017 OVC036 09/05 A3021 RMK AO2 SLP232 T00890050=
KCVG 201952Z 14003KT 10SM SCT018 BKN034 BKN150 09/04 A3020 RMK AO2 SLP226
 T00940044=
KCVG 202052Z 19005KT 10SM SCT023 OVC030 09/04 A3021 RMK AO2 SLP232 T00940039
 55001=
KCVG 202119Z 19007KT 10SM FEW015 OVC028 09/04 A3022 RMK AO2 T00890039=
KCVG 202152Z 18004KT 10SM OVC029 09/04 A3022 RMK AO2 SLP233 T00890044=
KCVG 202252Z 17005KT 10SM OVC030 08/04 A3023 RMK AO2 SLP237 BINOVC T00780044=
KCVG 202329Z 18008KT 10SM OVC027 08/04 A3024 RMK AO2 T00780039=
KCVG 202352Z 18008KT 10SM OVC026 08/04 A3024 RMK AO2 SLP241 T00780039 10094
 20072 53008=
KCVG 210052Z 17007KT 10SM BKN026 OVC250 06/03 A3024 RMK AO2 SLP242 T00610033=
KCVG 210125Z 16005KT 10SM SCT026 OVC250 05/02 A3025 RMK AO2 T00500022=
KCVG 210152Z 18005KT 10SM BKN022 OVC250 06/03 A3025 RMK AO2 SLP244 T00560028=
KCVG 210235Z 18005KT 10SM SCT024 OVC250 05/02 A3025 RMK AO2 T00500022=
KCVG 210252Z 21004KT 9SM OVC250 05/02 A3025 RMK AO2 SLP247 T00500022 53005=
KCVG 210352Z 18004KT 9SM OVC250 04/02 A3024 RMK AO2 SLP243 T00440022=
KCVG 210452Z 14006KT 8SM OVC240 04/02 A3023 RMK AO2 SLP237 T00440022 400940039=
KCVG 210552Z 17006KT 7SM OVC210 04/02 A3020 RMK AO2 SLP229 T00390022 10072
 20039 58017=
KCVG 210652Z 15008KT 7SM OVC200 06/03 A3018 RMK AO2 SLP220 T00560028=
KCVG 210752Z 17008KT 7SM OVC210 05/03 A3018 RMK AO2 SLP220 T00500028=
KCVG 210852Z 16007KT 7SM OVC190 05/03 A3017 RMK AO2 SLP217 T00500028 56012=
KCVG 210952Z 16008KT 8SM SCT170 OVC220 06/03 A3015 RMK AO2 SLP210 T00560028=
KCVG 211052Z 17009KT 9SM OVC160 06/03 A3013 RMK AO2 SLP203 T00560028=
KCVG 211152Z 17007KT 9SM SCT120 OVC210 05/03 A3013 RMK AO2 SLP205 OVC THN
 T00500028 10056 20039 55012=
KCVG 211252Z 16009KT 8SM FEW100 BKN120 OVC200 06/03 A3009 RMK AO2 SLP190
 T00610033=
KCVG 211352Z 19008KT 10SM BKN120 OVC150 08/03 A3009 RMK AO2 SLP191 T00780033=